createdAt,value
2019-04-14T00:00:49.465Z,96081.20
2019-04-14T00:03:36.922Z,96081.72
2019-04-14T00:06:04.845Z,96080.38
2019-04-14T00:08:32.614Z,96081.72
2019-04-14T00:10:59.472Z,96081.20
2019-04-14T00:13:26.267Z,96083.77
2019-04-14T00:15:53.824Z,96077.53
2019-04-14T00:18:21.530Z,96074.77
2019-04-14T00:20:49.169Z,96076.11
2019-04-14T00:23:15.854Z,96069.44
2019-04-14T00:25:43.403Z,96070.34
2019-04-14T00:28:10.079Z,96064.19
2019-04-14T00:30:36.688Z,96064.92
2019-04-14T00:33:04.643Z,96066.05
2019-04-14T00:35:58.020Z,96057.83
2019-04-14T00:38:28.359Z,96057.91
2019-04-14T00:41:09.388Z,96056.88
2019-04-14T00:43:59.741Z,96051.46
2019-04-14T00:46:45.891Z,96057.52
2019-04-14T00:49:13.514Z,96053.44
2019-04-14T00:51:41.232Z,96049.44
2019-04-14T00:54:08.858Z,96049.89
2019-04-14T00:56:36.690Z,96055.23
2019-04-14T00:59:03.506Z,96047.34
2019-04-14T01:01:30.821Z,96046.44
2019-04-14T01:03:57.517Z,96046.14
2019-04-14T01:06:25.072Z,96046.27
2019-04-14T01:08:51.719Z,96041.95
2019-04-14T01:11:18.343Z,96040.63
2019-04-14T01:13:46.156Z,96036.02
2019-04-14T01:16:17.418Z,96033.96
2019-04-14T01:18:41.512Z,96033.36
2019-04-14T01:21:08.928Z,96032.17
2019-04-14T01:23:36.845Z,96039.05
2019-04-14T01:26:04.929Z,96030.14
2019-04-14T01:28:32.892Z,96027.48
2019-04-14T01:30:59.642Z,96038.36
2019-04-14T01:33:27.268Z,96038.17
2019-04-14T01:35:55.208Z,96034.39
2019-04-14T01:38:23.234Z,96030.09
2019-04-14T01:40:51.016Z,96035.20
2019-04-14T01:43:18.842Z,96035.63
2019-04-14T01:45:58.113Z,96027.88
2019-04-14T01:48:14.827Z,96032.09
2019-04-14T01:51:13.531Z,96032.39
2019-04-14T01:53:58.194Z,96031.57
2019-04-14T01:56:42.951Z,96035.88
2019-04-14T01:59:10.766Z,96039.05
2019-04-14T02:01:38.961Z,96036.39
2019-04-14T02:04:05.668Z,96038.23
2019-04-14T02:06:33.346Z,96040.08
2019-04-14T02:09:01.168Z,96035.78
2019-04-14T02:11:29.087Z,96035.90
2019-04-14T02:13:57.137Z,96038.27
2019-04-14T02:16:32.782Z,96040.31
2019-04-14T02:18:54.073Z,96034.69
2019-04-14T02:21:21.597Z,96029.77
2019-04-14T02:23:49.676Z,96041.92
2019-04-14T02:26:17.560Z,96041.82
2019-04-14T02:28:44.344Z,96041.00
2019-04-14T02:31:24.883Z,96037.73
2019-04-14T02:34:13.017Z,96037.73
2019-04-14T02:39:07.193Z,96042.24
2019-04-14T02:44:04.613Z,96042.97
2019-04-14T02:46:31.398Z,96047.17
2019-04-14T02:48:58.392Z,96041.84
2019-04-14T02:51:26.974Z,96043.69
2019-04-14T02:56:23.843Z,96043.69
2019-04-14T02:58:51.986Z,96042.88
2019-04-14T03:03:54.260Z,96037.55
2019-04-14T03:06:14.646Z,96046.36
2019-04-14T03:11:09.348Z,96047.17
2019-04-14T03:13:58.442Z,96049.11
2019-04-14T03:16:13.747Z,96043.48
2019-04-14T03:19:08.865Z,96042.15
2019-04-14T03:22:18.399Z,96043.48
2019-04-14T03:24:46.615Z,96041.42
2019-04-14T03:27:43.865Z,96041.00
2019-04-14T03:30:54.624Z,96047.16
2019-04-14T03:35:52.508Z,96039.25
2019-04-14T03:37:51.096Z,96039.77
2019-04-14T03:40:18.223Z,96046.73
2019-04-14T03:42:49.387Z,96044.58
2019-04-14T03:45:16.516Z,96050.48
2019-04-14T03:47:57.761Z,96045.09
2019-04-14T03:50:11.656Z,96042.95
2019-04-14T03:54:57.009Z,96042.34
2019-04-14T03:57:10.344Z,96040.70
2019-04-14T03:59:37.156Z,96044.39
2019-04-14T04:02:03.779Z,96044.09
2019-04-14T04:04:31.498Z,96044.09
2019-04-14T04:06:59.516Z,96035.28
2019-04-14T04:09:49.642Z,96046.75
2019-04-14T04:12:16.378Z,96038.13
2019-04-14T04:14:44.109Z,96044.19
2019-04-14T04:17:34.046Z,96042.45
2019-04-14T04:20:19.663Z,96047.90
2019-04-14T04:23:05.900Z,96046.38
2019-04-14T04:25:44.414Z,96048.36
2019-04-14T04:28:30.644Z,96050.75
2019-04-14T04:31:13.378Z,96053.41
2019-04-14T04:33:50.174Z,96052.55
2019-04-14T04:36:22.486Z,96061.10
2019-04-14T04:38:55.367Z,96068.52
2019-04-14T04:41:23.175Z,96069.53
2019-04-14T04:43:50.025Z,96069.25
2019-04-14T04:46:17.655Z,96066.48
2019-04-14T04:48:57.416Z,96070.00
2019-04-14T04:51:13.885Z,96071.91
2019-04-14T04:53:41.882Z,96075.82
2019-04-14T04:56:08.652Z,96077.57
2019-04-14T04:58:35.242Z,96085.47
2019-04-14T05:01:01.843Z,96085.50
2019-04-14T05:03:29.629Z,96080.02
2019-04-14T05:06:28.790Z,96081.96
2019-04-14T05:08:59.109Z,96079.45
2019-04-14T05:11:33.920Z,96095.61
2019-04-14T05:14:04.396Z,96096.86
2019-04-14T05:16:32.394Z,96101.92
2019-04-14T05:19:14.082Z,96105.36
2019-04-14T05:21:30.382Z,96111.80
2019-04-14T05:23:58.051Z,96114.89
2019-04-14T05:26:24.805Z,96120.02
2019-04-14T05:28:52.666Z,96116.92
2019-04-14T05:31:20.637Z,96118.00
2019-04-14T05:33:47.540Z,96124.63
2019-04-14T05:36:15.018Z,96124.08
2019-04-14T05:38:42.763Z,96122.56
2019-04-14T05:41:09.572Z,96130.64
2019-04-14T05:43:45.016Z,96122.59
2019-04-14T05:46:05.557Z,96123.95
2019-04-14T05:48:35.697Z,96127.42
2019-04-14T05:51:02.496Z,96119.56
2019-04-14T05:53:30.584Z,96127.64
2019-04-14T05:55:57.233Z,96127.86
2019-04-14T05:58:23.857Z,96128.37
2019-04-14T06:00:51.739Z,96130.06
2019-04-14T06:03:19.102Z,96134.31
2019-04-14T06:05:45.827Z,96128.39
2019-04-14T06:08:12.455Z,96140.12
2019-04-14T06:10:39.059Z,96132.84
2019-04-14T06:13:05.676Z,96140.26
2019-04-14T06:15:32.957Z,96133.88
2019-04-14T06:17:59.553Z,96138.45
2019-04-14T06:20:26.166Z,96141.44
2019-04-14T06:22:52.768Z,96133.59
2019-04-14T06:25:19.359Z,96134.91
2019-04-14T06:27:45.967Z,96129.42
2019-04-14T06:30:35.176Z,96127.80
2019-04-14T06:33:06.703Z,96133.60
2019-04-14T06:36:04.719Z,96137.91
2019-04-14T06:38:33.364Z,96139.53
2019-04-14T06:41:11.512Z,96138.03
2019-04-14T06:43:48.370Z,96144.95
2019-04-14T06:46:06.651Z,96140.86
2019-04-14T06:48:33.259Z,96133.88
2019-04-14T06:50:59.883Z,96136.77
2019-04-14T06:53:26.494Z,96131.50
2019-04-14T06:55:55.045Z,96131.35
2019-04-14T06:58:21.832Z,96130.41
2019-04-14T07:00:48.469Z,96143.84
2019-04-14T07:03:15.072Z,96135.42
2019-04-14T07:05:41.687Z,96136.84
2019-04-14T07:08:08.328Z,96136.80
2019-04-14T07:10:35.045Z,96140.45
2019-04-14T07:13:01.662Z,96131.61
2019-04-14T07:15:28.302Z,96133.98
2019-04-14T07:17:54.988Z,96131.53
2019-04-14T07:20:21.658Z,96138.40
2019-04-14T07:22:48.372Z,96132.83
2019-04-14T07:25:16.249Z,96146.17
2019-04-14T07:27:42.882Z,96140.12
2019-04-14T07:30:19.404Z,96144.50
2019-04-14T07:33:02.357Z,96141.73
2019-04-14T07:35:46.890Z,96141.17
2019-04-14T07:38:23.902Z,96151.13
2019-04-14T07:41:10.039Z,96151.23
2019-04-14T07:44:05.388Z,96148.38
2019-04-14T07:46:51.634Z,96148.77
2019-04-14T07:49:43.889Z,96149.34
2019-04-14T07:52:38.904Z,96140.25
2019-04-14T07:55:16.758Z,96141.25
2019-04-14T07:58:01.767Z,96142.98
2019-04-14T08:00:46.733Z,96144.83
2019-04-14T08:03:48.288Z,96148.27
2019-04-14T08:06:15.371Z,96146.11
2019-04-14T08:08:42.079Z,96149.69
2019-04-14T08:11:08.699Z,96149.68
2019-04-14T08:13:35.485Z,96150.77
2019-04-14T08:16:02.183Z,96153.84
2019-04-14T08:18:28.837Z,96161.44
2019-04-14T08:20:55.549Z,96159.61
2019-04-14T08:23:22.237Z,96157.34
2019-04-14T08:25:48.978Z,96160.61
2019-04-14T08:28:15.705Z,96158.91
2019-04-14T08:30:42.329Z,96146.23
2019-04-14T08:33:09.044Z,96151.64
2019-04-14T08:35:35.658Z,96144.50
2019-04-14T08:38:02.284Z,96147.31
2019-04-14T08:40:29.071Z,96148.61
2019-04-14T08:43:13.088Z,96153.28
2019-04-14T08:46:07.834Z,96150.25
2019-04-14T08:48:52.621Z,96145.92
2019-04-14T08:51:26.667Z,96149.59
2019-04-14T08:54:18.854Z,96153.16
2019-04-14T08:57:23.092Z,96140.27
2019-04-14T09:00:00.049Z,96139.90
2019-04-14T09:02:44.616Z,96133.17
2019-04-14T09:05:29.236Z,96133.31
2019-04-14T09:08:05.543Z,96140.02
2019-04-14T09:10:35.899Z,96133.91
2019-04-14T09:13:02.514Z,96137.81
2019-04-14T09:15:29.564Z,96129.56
2019-04-14T09:17:56.185Z,96138.42
2019-04-14T09:20:22.828Z,96141.73
2019-04-14T09:22:49.434Z,96132.60
2019-04-14T09:25:17.390Z,96134.91
2019-04-14T09:27:44.099Z,96137.30
2019-04-14T09:30:10.840Z,96132.22
2019-04-14T09:32:37.465Z,96131.78
2019-04-14T09:35:04.285Z,96127.84
2019-04-14T09:37:30.916Z,96132.31
2019-04-14T09:39:57.553Z,96136.70
2019-04-14T09:42:24.196Z,96127.48
2019-04-14T09:44:50.882Z,96125.05
2019-04-14T09:47:17.509Z,96128.59
2019-04-14T09:49:44.184Z,96121.88
2019-04-14T09:52:10.794Z,96127.23
2019-04-14T09:54:37.406Z,96122.09
2019-04-14T09:57:04.032Z,96126.52
2019-04-14T09:59:30.660Z,96127.34
2019-04-14T10:01:57.299Z,96130.38
2019-04-14T10:04:23.996Z,96131.39
2019-04-14T10:06:50.618Z,96136.35
2019-04-14T10:09:17.331Z,96132.34
2019-04-14T10:11:49.003Z,96141.84
2019-04-14T10:14:12.590Z,96126.50
2019-04-14T10:16:39.243Z,96125.20
2019-04-14T10:19:05.958Z,96126.35
2019-04-14T10:21:32.592Z,96130.56
2019-04-14T10:23:59.222Z,96137.31
2019-04-14T10:26:25.975Z,96142.86
2019-04-14T10:28:52.747Z,96144.84
2019-04-14T10:31:19.447Z,96141.17
2019-04-14T10:33:46.071Z,96144.83
2019-04-14T10:36:12.687Z,96140.38
2019-04-14T10:38:39.319Z,96145.73
2019-04-14T10:41:06.499Z,96143.48
2019-04-14T10:43:33.175Z,96145.94
2019-04-14T10:45:59.806Z,96142.52
2019-04-14T10:48:26.529Z,96139.08
2019-04-14T10:50:53.126Z,96131.97
2019-04-14T10:53:19.745Z,96142.67
2019-04-14T10:55:46.379Z,96129.80
2019-04-14T10:58:12.991Z,96130.66
2019-04-14T11:00:39.587Z,96135.43
2019-04-14T11:03:06.199Z,96135.80
2019-04-14T11:08:18.929Z,96137.02
2019-04-14T11:10:45.560Z,96132.80
2019-04-14T11:13:12.177Z,96128.52
2019-04-14T11:15:38.812Z,96130.09
2019-04-14T11:18:05.430Z,96127.23
2019-04-14T11:20:32.158Z,96129.03
2019-04-14T11:23:03.610Z,96128.22
2019-04-14T11:25:27.305Z,96125.97
2019-04-14T11:27:53.930Z,96125.39
2019-04-14T11:30:21.340Z,96129.09
2019-04-14T11:33:07.403Z,96132.30
2019-04-14T11:35:37.894Z,96132.98
2019-04-14T11:38:23.991Z,96128.37
2019-04-14T11:40:52.877Z,96135.44
2019-04-14T11:43:19.572Z,96135.14
2019-04-14T11:45:48.326Z,96143.39
2019-04-14T11:48:15.059Z,96147.34
2019-04-14T11:50:41.687Z,96149.50
2019-04-14T11:53:08.394Z,96147.74
2019-04-14T11:55:35.106Z,96157.08
2019-04-14T11:58:01.816Z,96155.09
2019-04-14T12:00:47.930Z,96145.37
2019-04-14T12:03:34.099Z,96154.67
2019-04-14T12:06:20.284Z,96148.88
2019-04-14T12:09:06.381Z,96151.41
2019-04-14T12:11:33.201Z,96158.19
2019-04-14T12:13:59.827Z,96161.97
2019-04-14T12:16:26.537Z,96164.83
2019-04-14T12:18:53.137Z,96168.40
2019-04-14T12:21:19.749Z,96170.86
2019-04-14T12:23:46.373Z,96172.38
2019-04-14T12:26:13.013Z,96175.83
2019-04-14T12:28:40.478Z,96175.41
2019-04-14T12:31:07.205Z,96170.22
2019-04-14T12:33:33.819Z,96172.04
2019-04-14T12:36:00.509Z,96171.75
2019-04-14T12:38:27.121Z,96179.44
2019-04-14T12:40:56.255Z,96180.12
2019-04-14T12:43:45.129Z,96185.91
2019-04-14T12:46:31.246Z,96187.16
2019-04-14T12:49:26.189Z,96181.02
2019-04-14T12:52:20.657Z,96182.36
2019-04-14T12:54:39.248Z,96182.50
2019-04-14T12:57:05.863Z,96181.50
2019-04-14T13:02:46.911Z,96189.99
2019-04-14T13:05:13.532Z,96196.71
2019-04-14T13:07:40.141Z,96193.45
2019-04-14T13:10:06.836Z,96195.89
2019-04-14T13:12:33.519Z,96189.37
2019-04-14T13:15:02.717Z,96191.00
2019-04-14T13:17:54.408Z,96190.28
2019-04-14T13:20:40.511Z,96196.86
2019-04-14T13:23:07.131Z,96194.70
2019-04-14T13:25:33.915Z,96192.06
2019-04-14T13:28:00.534Z,96189.56
2019-04-14T13:30:30.458Z,96195.37
2019-04-14T13:32:57.049Z,96194.20
2019-04-14T13:35:23.662Z,96195.56
2019-04-14T13:37:50.274Z,96193.78
2019-04-14T13:40:18.636Z,96195.22
2019-04-14T13:42:45.291Z,96191.00
2019-04-14T13:45:11.904Z,96193.52
2019-04-14T13:47:38.547Z,96192.02
2019-04-14T13:50:05.244Z,96189.14
2019-04-14T13:52:31.873Z,96189.28
2019-04-14T13:54:58.570Z,96188.70
2019-04-14T13:57:25.278Z,96191.52
2019-04-14T13:59:51.974Z,96195.01
2019-04-14T14:02:18.606Z,96196.92
2019-04-14T14:04:45.210Z,96198.02
2019-04-14T14:07:11.843Z,96200.80
2019-04-14T14:09:38.554Z,96204.36
2019-04-14T14:12:15.597Z,96203.16
2019-04-14T14:14:54.697Z,96200.47
2019-04-14T14:17:39.972Z,96207.36
2019-04-14T14:20:31.700Z,96202.75
2019-04-14T14:23:04.872Z,96202.80
2019-04-14T14:25:35.791Z,96212.94
2019-04-14T14:28:02.420Z,96209.30
2019-04-14T14:30:29.071Z,96208.15
2019-04-14T14:32:55.786Z,96213.20
2019-04-14T14:35:22.414Z,96200.27
2019-04-14T14:37:49.034Z,96210.73
2019-04-14T14:40:18.227Z,96213.14
2019-04-14T14:42:44.842Z,96204.20
2019-04-14T14:45:21.422Z,96204.78
2019-04-14T14:48:07.548Z,96215.25
2019-04-14T14:50:41.089Z,96207.09
2019-04-14T14:53:12.356Z,96211.17
2019-04-14T14:55:45.980Z,96205.27
2019-04-14T14:58:12.716Z,96210.73
2019-04-14T15:00:39.430Z,96216.17
2019-04-14T15:03:08.059Z,96218.09
2019-04-14T15:05:34.675Z,96221.78
2019-04-14T15:08:01.314Z,96221.59
2019-04-14T15:10:27.933Z,96225.52
2019-04-14T15:12:54.678Z,96224.48
2019-04-14T15:15:21.282Z,96228.35
2019-04-14T15:17:47.892Z,96227.67
2019-04-14T15:20:14.506Z,96231.77
2019-04-14T15:22:41.107Z,96230.16
2019-04-14T15:25:11.120Z,96231.96
2019-04-14T15:27:37.881Z,96230.56
2019-04-14T15:30:06.564Z,96236.36
2019-04-14T15:32:33.312Z,96235.54
2019-04-14T15:35:00.005Z,96237.94
2019-04-14T15:37:26.723Z,96234.43
2019-04-14T15:39:53.317Z,96244.30
2019-04-14T15:42:19.947Z,96245.33
2019-04-14T15:44:46.565Z,96249.20
2019-04-14T15:47:13.448Z,96255.85
2019-04-14T15:49:40.059Z,96256.27
2019-04-14T15:52:06.680Z,96250.66
2019-04-14T15:54:33.290Z,96250.77
2019-04-14T16:00:04.548Z,96257.50
2019-04-14T16:02:38.910Z,96259.59
2019-04-14T16:05:28.378Z,96258.33
2019-04-14T16:08:03.935Z,96264.48
2019-04-14T16:10:44.994Z,96270.81
2019-04-14T16:13:33.350Z,96268.72
2019-04-14T16:16:22.357Z,96266.36
2019-04-14T16:18:54.489Z,96275.09
2019-04-14T16:21:21.103Z,96274.87
2019-04-14T16:23:50.835Z,96278.03
2019-04-14T16:26:45.051Z,96278.26
2019-04-14T16:29:21.371Z,96275.87
2019-04-14T16:32:10.300Z,96280.28
2019-04-14T16:34:42.343Z,96274.45
2019-04-14T16:37:08.969Z,96278.91
2019-04-14T16:39:35.700Z,96284.21
2019-04-14T16:42:02.359Z,96280.94
2019-04-14T16:44:29.086Z,96281.17
2019-04-14T16:46:55.738Z,96286.84
2019-04-14T16:49:22.330Z,96291.45
2019-04-14T16:51:58.046Z,96293.61
2019-04-14T16:54:39.433Z,96296.82
2019-04-14T16:57:24.268Z,96297.05
2019-04-14T16:59:51.050Z,96303.47
2019-04-14T17:02:17.764Z,96301.30
2019-04-14T17:04:44.399Z,96300.26
2019-04-14T17:07:11.288Z,96304.58
2019-04-14T17:09:37.948Z,96302.48
2019-04-14T17:12:04.768Z,96302.25
2019-04-14T17:15:02.807Z,96303.82
2019-04-14T17:17:47.585Z,96307.85
2019-04-14T17:20:44.846Z,96310.94
2019-04-14T17:23:29.214Z,96314.60
2019-04-14T17:26:01.298Z,96308.11
2019-04-14T17:28:53.700Z,96317.53
2019-04-14T17:31:24.041Z,96307.65
2019-04-14T17:33:56.846Z,96324.39
2019-04-14T17:36:37.445Z,96330.92
2019-04-14T17:39:10.186Z,96337.16
2019-04-14T17:42:08.499Z,96340.09
2019-04-14T17:44:42.483Z,96342.09
2019-04-14T17:47:27.333Z,96355.16
2019-04-14T17:50:00.010Z,96351.95
2019-04-14T17:52:29.527Z,96353.02
2019-04-14T17:55:24.853Z,96355.24
2019-04-14T17:57:55.855Z,96366.59
2019-04-14T18:00:28.000Z,96362.84
2019-04-14T18:02:58.937Z,96365.09
2019-04-14T18:05:46.902Z,96377.83
2019-04-14T18:08:23.073Z,96373.92
2019-04-14T18:10:54.991Z,96383.13
2019-04-14T18:13:28.331Z,96383.51
2019-04-14T18:16:05.076Z,96393.04
2019-04-14T18:18:51.206Z,96399.22
2019-04-14T18:21:17.913Z,96409.64
2019-04-14T18:23:44.543Z,96413.66
2019-04-14T18:26:11.184Z,96419.62
2019-04-14T18:28:43.410Z,96421.70
2019-04-14T18:31:38.503Z,96427.14
2019-04-14T18:34:30.642Z,96435.19
2019-04-14T18:37:05.288Z,96439.38
2019-04-14T18:40:00.773Z,96448.17
2019-04-14T18:42:55.900Z,96450.63
2019-04-14T18:45:30.149Z,96460.28
2019-04-14T18:48:19.583Z,96468.19
2019-04-14T18:51:04.369Z,96465.34
2019-04-14T18:53:53.104Z,96462.80
2019-04-14T18:56:45.056Z,96472.91
2019-04-14T18:59:46.190Z,96475.16
2019-04-14T19:02:14.378Z,96477.67
2019-04-14T19:04:41.109Z,96484.93
2019-04-14T19:07:07.835Z,96490.14
2019-04-14T19:09:34.469Z,96491.83
2019-04-14T19:12:18.996Z,96498.56
2019-04-14T19:14:46.078Z,96503.26
2019-04-14T19:17:35.048Z,96506.67
2019-04-14T19:20:02.660Z,96501.53
2019-04-14T19:22:29.437Z,96503.91
2019-04-14T19:25:07.450Z,96512.75
2019-04-14T19:27:25.465Z,96513.79
2019-04-14T19:29:52.457Z,96515.43
2019-04-14T19:32:19.364Z,96512.02
2019-04-14T19:34:46.420Z,96519.02
2019-04-14T19:37:13.273Z,96524.89
2019-04-14T19:39:40.020Z,96525.63
2019-04-14T19:42:06.677Z,96531.41
2019-04-14T19:44:33.423Z,96534.50
2019-04-14T19:47:00.126Z,96538.22
2019-04-14T19:49:26.791Z,96541.02
2019-04-14T19:51:53.410Z,96541.44
2019-04-14T19:54:20.059Z,96550.23
2019-04-14T19:56:46.687Z,96552.94
2019-04-14T19:59:16.132Z,96550.28
2019-04-14T20:01:42.808Z,96549.09
2019-04-14T20:04:09.551Z,96556.30
2019-04-14T20:06:36.191Z,96560.31
2019-04-14T20:09:04.252Z,96566.39
2019-04-14T20:11:30.915Z,96567.63
2019-04-14T20:13:57.529Z,96570.94
2019-04-14T20:16:58.782Z,96573.13
2019-04-14T20:19:33.623Z,96577.18
2019-04-14T20:22:25.587Z,96579.24
2019-04-14T20:24:59.352Z,96577.30
2019-04-14T20:27:33.008Z,96583.58
2019-04-14T20:30:02.603Z,96582.23
2019-04-14T20:32:31.252Z,96584.61
2019-04-14T20:34:57.963Z,96584.30
2019-04-14T20:37:24.621Z,96585.98
2019-04-14T20:39:51.307Z,96591.03
2019-04-14T20:42:17.934Z,96592.88
2019-04-14T20:44:44.538Z,96597.20
2019-04-14T20:47:11.177Z,96596.38
2019-04-14T20:49:37.872Z,96599.26
2019-04-14T20:52:04.499Z,96602.34
2019-04-14T20:54:31.105Z,96599.27
2019-04-14T20:56:57.766Z,96599.36
2019-04-14T20:59:24.364Z,96601.52
2019-04-14T21:01:59.796Z,96605.53
2019-04-14T21:04:45.915Z,96602.34
2019-04-14T21:07:40.314Z,96605.84
2019-04-14T21:10:20.453Z,96606.25
2019-04-14T21:13:02.420Z,96611.50
2019-04-14T21:15:36.264Z,96604.30
2019-04-14T21:18:37.436Z,96609.34
2019-04-14T21:21:20.526Z,96615.20
2019-04-14T21:23:51.060Z,96607.59
2019-04-14T21:26:35.216Z,96614.48
2019-04-14T21:29:11.794Z,96612.84
2019-04-14T21:31:56.135Z,96611.13
2019-04-14T21:34:51.272Z,96614.31
2019-04-14T21:37:40.917Z,96617.71
2019-04-14T21:40:17.739Z,96616.58
2019-04-14T21:42:44.519Z,96621.92
2019-04-14T21:45:11.163Z,96619.28
2019-04-14T21:47:37.821Z,96624.52
2019-04-14T21:50:04.516Z,96628.53
2019-04-14T21:52:49.950Z,96631.51
2019-04-14T21:55:17.962Z,96634.80
2019-04-14T21:58:07.357Z,96636.34
2019-04-14T22:00:57.303Z,96639.53
2019-04-14T22:03:36.808Z,96644.88
2019-04-14T22:06:15.727Z,96644.66
2019-04-14T22:08:46.583Z,96641.17
2019-04-14T22:11:17.472Z,96643.84
2019-04-14T22:13:44.202Z,96648.37
2019-04-14T22:16:10.839Z,96650.83
2019-04-14T22:18:37.469Z,96648.37
2019-04-14T22:21:04.187Z,96646.72
2019-04-14T22:23:30.787Z,96651.03
2019-04-14T22:25:57.435Z,96652.17
2019-04-14T22:28:24.107Z,96653.58
2019-04-14T22:30:50.733Z,96655.94
2019-04-14T22:33:17.328Z,96648.75
2019-04-14T22:35:43.966Z,96654.91
2019-04-14T22:38:10.617Z,96654.91
2019-04-14T22:40:37.220Z,96653.88
2019-04-14T22:43:03.827Z,96656.59
2019-04-14T22:45:31.519Z,96660.59
2019-04-14T22:47:58.156Z,96657.61
2019-04-14T22:50:24.822Z,96659.87
2019-04-14T22:52:51.461Z,96659.87
2019-04-14T22:55:18.034Z,96659.87
2019-04-14T22:57:44.691Z,96654.73
2019-04-14T23:00:16.535Z,96653.91
2019-04-14T23:02:59.709Z,96658.62
2019-04-14T23:05:44.653Z,96657.30
2019-04-14T23:08:48.426Z,96658.22
2019-04-14T23:11:29.232Z,96661.40
2019-04-14T23:14:23.947Z,96658.66
2019-04-14T23:17:19.070Z,96660.50
2019-04-14T23:19:49.990Z,96657.59
2019-04-14T23:22:30.884Z,96659.14
2019-04-14T23:24:57.490Z,96661.92
2019-04-14T23:27:24.104Z,96658.02
2019-04-14T23:29:50.708Z,96657.81
2019-04-14T23:32:17.327Z,96661.00
2019-04-14T23:34:43.940Z,96661.00
2019-04-14T23:37:10.566Z,96665.41
2019-04-14T23:39:37.165Z,96667.57
2019-04-14T23:42:03.774Z,96670.25
2019-04-14T23:44:30.392Z,96671.06
2019-04-14T23:46:56.992Z,96663.36
2019-04-14T23:49:23.737Z,96670.97
2019-04-14T23:51:50.322Z,96672.41
2019-04-14T23:54:16.944Z,96677.24
2019-04-14T23:56:43.559Z,96672.92
2019-04-14T23:59:10.282Z,96681.14
